Meherrin, Virginia
Current Conditions -  °F | °C
As of 12:55 PM on Sunday 25 Jan 2015 (Local Time) from KW31 Reporting Station
Clear Clear  
Wind Chill: 51°   Ceiling: Unl
Heat Index: 51°   Visibility: 10mi
Dew Point: 34°   Wind: 5mph
Humidity: 51%   Direction: 240°WSW
Pressure: 29.87"   Gusts: NA
Location:  37.1°N, 78.37°W
Report Text: KW31 251755Z AUTO 24004KT 10SM CLR 11/01 A2987 RMK AO1 T01070009 10109 21004
Loading
Personal Weather Stations






























Interactive Weather Map New forecast layout! Learn more

10-Day Weather Forecast

Advertisements
Track Severe Weather on mobile